createdAt,value
2022-09-09T00:01:11.028Z,14.99
2022-09-09T00:03:54.300Z,15.01
2022-09-09T00:06:23.999Z,14.99
2022-09-09T00:09:16.906Z,14.95
2022-09-09T00:12:02.304Z,14.95
2022-09-09T00:14:47.340Z,14.96
2022-09-09T00:17:27.056Z,14.95
2022-09-09T00:20:05.881Z,14.93
2022-09-09T00:22:33.460Z,14.91
2022-09-09T00:25:12.128Z,14.90
2022-09-09T00:27:46.737Z,14.91
2022-09-09T00:30:23.633Z,15.01
2022-09-09T00:33:00.677Z,15.00
2022-09-09T00:35:35.152Z,14.95
2022-09-09T00:38:11.786Z,14.97
2022-09-09T00:41:04.775Z,14.97
2022-09-09T00:43:32.676Z,14.99
2022-09-09T00:46:01.993Z,15.01
2022-09-09T00:48:53.103Z,15.02
2022-09-09T00:51:58.187Z,15.05
2022-09-09T00:54:43.082Z,15.06
2022-09-09T00:57:24.894Z,14.93
2022-09-09T01:00:16.760Z,15.01
2022-09-09T01:03:03.880Z,15.09
2022-09-09T01:05:33.228Z,15.08
2022-09-09T01:08:03.506Z,14.97
2022-09-09T01:10:40.206Z,14.94
2022-09-09T01:13:16.155Z,14.95
2022-09-09T01:15:45.415Z,15.00
2022-09-09T01:18:17.987Z,15.05
2022-09-09T01:21:18.371Z,15.03
2022-09-09T01:24:05.184Z,15.02
2022-09-09T01:26:46.982Z,15.03
2022-09-09T01:29:24.150Z,15.10
2022-09-09T01:31:59.554Z,15.03
2022-09-09T01:34:29.739Z,15.19
2022-09-09T01:37:13.931Z,15.12
2022-09-09T01:39:45.295Z,15.11
2022-09-09T01:42:17.044Z,15.07
2022-09-09T01:44:43.964Z,15.09
2022-09-09T01:47:10.542Z,15.05
2022-09-09T01:49:52.266Z,15.01
2022-09-09T01:52:23.643Z,15.03
2022-09-09T01:54:50.347Z,14.93
2022-09-09T01:57:28.691Z,14.81
2022-09-09T02:00:12.782Z,14.93
2022-09-09T02:03:10.119Z,15.06
2022-09-09T02:06:00.929Z,15.02
2022-09-09T02:08:48.361Z,14.79
2022-09-09T02:11:17.875Z,14.69
2022-09-09T02:14:02.611Z,14.73
2022-09-09T02:16:58.414Z,14.67
2022-09-09T02:19:40.091Z,14.73
2022-09-09T02:22:16.880Z,14.80
2022-09-09T02:24:43.532Z,14.79
2022-09-09T02:27:18.068Z,14.83
2022-09-09T02:29:45.822Z,14.79
2022-09-09T02:32:15.900Z,14.78
2022-09-09T02:34:50.156Z,14.72
2022-09-09T02:37:21.069Z,14.68
2022-09-09T02:39:51.333Z,14.76
2022-09-09T02:42:20.328Z,14.82
2022-09-09T02:44:46.751Z,14.84
2022-09-09T02:47:31.456Z,14.93
2022-09-09T02:50:28.972Z,14.96
2022-09-09T02:53:16.688Z,14.96
2022-09-09T02:56:04.891Z,14.94
2022-09-09T02:58:34.440Z,14.98
2022-09-09T03:01:04.718Z,14.92
2022-09-09T03:03:32.298Z,14.83
2022-09-09T03:06:00.886Z,14.81
2022-09-09T03:08:28.589Z,14.87
2022-09-09T03:10:56.799Z,14.91
2022-09-09T03:13:26.256Z,14.96
2022-09-09T03:15:52.743Z,14.94
2022-09-09T03:18:20.879Z,14.96
2022-09-09T03:20:50.567Z,15.04
2022-09-09T03:23:18.124Z,14.98
2022-09-09T03:25:52.887Z,14.97
2022-09-09T03:28:31.798Z,14.99
2022-09-09T03:31:04.820Z,15.03
2022-09-09T03:33:37.849Z,15.09
2022-09-09T03:36:06.387Z,15.07
2022-09-09T03:38:33.082Z,15.06
2022-09-09T03:41:01.078Z,15.11
2022-09-09T03:43:28.519Z,15.00
2022-09-09T03:45:58.059Z,15.02
2022-09-09T03:48:28.789Z,15.01
2022-09-09T03:51:01.458Z,15.00
2022-09-09T03:53:30.158Z,14.98
2022-09-09T03:56:00.617Z,14.92
2022-09-09T03:58:28.422Z,14.85
2022-09-09T04:01:05.981Z,14.83
2022-09-09T04:03:33.117Z,14.82
2022-09-09T04:06:01.347Z,14.77
2022-09-09T04:08:31.360Z,14.60
2022-09-09T04:10:59.076Z,14.40
2022-09-09T04:13:27.363Z,14.51
2022-09-09T04:15:56.096Z,14.63
2022-09-09T04:18:23.385Z,14.57
2022-09-09T04:20:51.182Z,14.63
2022-09-09T04:23:21.506Z,14.70
2022-09-09T04:25:55.703Z,14.74
2022-09-09T04:28:24.808Z,14.71
2022-09-09T04:30:52.599Z,14.73
2022-09-09T04:33:20.438Z,14.69
2022-09-09T04:35:50.900Z,14.70
2022-09-09T04:38:19.072Z,14.70
2022-09-09T04:40:48.688Z,14.73
2022-09-09T04:43:15.675Z,14.70
2022-09-09T04:45:44.825Z,14.68
2022-09-09T04:48:11.357Z,14.68
2022-09-09T04:50:37.824Z,14.86
2022-09-09T04:53:05.956Z,14.83
2022-09-09T04:55:35.700Z,14.81
2022-09-09T04:58:06.883Z,14.85
2022-09-09T05:00:34.768Z,14.81
2022-09-09T05:03:06.823Z,14.81
2022-09-09T05:05:37.402Z,14.85
2022-09-09T05:08:06.234Z,14.89
2022-09-09T05:10:34.366Z,14.92
2022-09-09T05:13:00.815Z,14.93
2022-09-09T05:15:30.060Z,14.96
2022-09-09T05:18:00.179Z,14.99
2022-09-09T05:20:28.284Z,15.49
2022-09-09T05:22:55.794Z,15.47
2022-09-09T05:25:25.393Z,15.45
2022-09-09T05:27:51.944Z,15.65
2022-09-09T05:30:19.769Z,15.59
2022-09-09T05:32:46.227Z,15.59
2022-09-09T05:35:14.284Z,15.95
2022-09-09T05:37:40.778Z,15.97
2022-09-09T05:40:07.269Z,16.09
2022-09-09T05:42:34.169Z,16.19
2022-09-09T05:45:00.899Z,16.45
2022-09-09T05:47:28.629Z,16.43
2022-09-09T05:49:56.077Z,16.56
2022-09-09T05:52:24.561Z,16.50
2022-09-09T05:54:51.255Z,16.54
2022-09-09T05:57:18.128Z,16.66
2022-09-09T05:59:44.519Z,16.90
2022-09-09T06:02:11.066Z,16.94
2022-09-09T06:04:37.803Z,16.95
2022-09-09T06:07:05.681Z,16.99
2022-09-09T06:09:32.294Z,17.03
2022-09-09T06:11:59.125Z,17.05
2022-09-09T06:14:27.823Z,17.05
2022-09-09T06:16:57.579Z,17.05
2022-09-09T06:19:28.012Z,17.10
2022-09-09T06:21:57.030Z,17.25
2022-09-09T06:24:23.410Z,17.32
2022-09-09T06:26:49.823Z,17.38
2022-09-09T06:29:21.004Z,17.34
2022-09-09T06:31:48.575Z,17.49
2022-09-09T06:34:22.923Z,17.64
2022-09-09T06:36:53.251Z,17.65
2022-09-09T06:39:19.567Z,17.66
2022-09-09T06:41:46.450Z,17.53
2022-09-09T06:44:35.785Z,17.61
2022-09-09T06:47:04.364Z,18.09
2022-09-09T06:49:31.846Z,18.16
2022-09-09T06:51:58.646Z,18.63
2022-09-09T06:54:26.257Z,18.15
2022-09-09T06:56:52.924Z,17.91
2022-09-09T06:59:23.122Z,17.84
2022-09-09T07:01:55.848Z,17.74
2022-09-09T07:04:22.977Z,17.68
2022-09-09T07:06:49.576Z,18.21
2022-09-09T07:09:21.372Z,18.53
2022-09-09T07:11:53.692Z,18.38
2022-09-09T07:14:22.855Z,18.61
2022-09-09T07:16:59.329Z,18.77
2022-09-09T07:19:27.812Z,18.49
2022-09-09T07:21:55.500Z,18.66
2022-09-09T07:24:23.931Z,18.83
2022-09-09T07:26:53.032Z,19.18
2022-09-09T07:29:20.928Z,19.33
2022-09-09T07:31:49.297Z,19.65
2022-09-09T07:34:20.022Z,19.64
2022-09-09T07:36:47.571Z,19.93
2022-09-09T07:39:15.094Z,19.67
2022-09-09T07:41:48.773Z,19.03
2022-09-09T07:44:23.202Z,19.01
2022-09-09T07:46:54.730Z,19.18
2022-09-09T07:49:32.153Z,19.32
2022-09-09T07:52:00.403Z,19.70
2022-09-09T07:54:27.223Z,19.29
2022-09-09T07:56:54.105Z,19.02
2022-09-09T07:59:23.338Z,18.76
2022-09-09T08:01:56.287Z,18.54
2022-09-09T08:04:27.053Z,18.28
2022-09-09T08:07:00.230Z,18.36
2022-09-09T08:09:29.701Z,18.55
2022-09-09T08:12:09.158Z,18.36
2022-09-09T08:14:35.756Z,18.37
2022-09-09T08:17:02.139Z,18.34
2022-09-09T08:19:36.583Z,18.75
2022-09-09T08:22:05.886Z,19.17
2022-09-09T08:24:33.621Z,19.67
2022-09-09T08:27:00.307Z,20.25
2022-09-09T08:29:28.867Z,20.25
2022-09-09T08:31:58.428Z,20.94
2022-09-09T08:34:28.240Z,21.03
2022-09-09T08:36:57.073Z,21.61
2022-09-09T08:39:30.260Z,20.87
2022-09-09T08:42:03.701Z,20.53
2022-09-09T08:44:48.760Z,20.92
2022-09-09T08:47:53.404Z,21.43
2022-09-09T08:50:39.481Z,21.68
2022-09-09T08:53:25.868Z,21.76
2022-09-09T08:56:02.310Z,21.69
2022-09-09T08:58:51.968Z,21.70
2022-09-09T09:01:41.974Z,21.57
2022-09-09T09:04:37.997Z,21.42
2022-09-09T09:07:35.089Z,21.64
2022-09-09T09:10:41.512Z,21.14
2022-09-09T09:13:21.943Z,20.99
2022-09-09T09:15:57.629Z,20.20
2022-09-09T09:18:24.443Z,19.68
2022-09-09T09:21:05.844Z,19.69
2022-09-09T09:24:08.086Z,19.33
2022-09-09T09:26:36.399Z,19.63
2022-09-09T09:29:12.891Z,20.38
2022-09-09T09:31:40.068Z,20.62
2022-09-09T09:34:09.490Z,21.43
2022-09-09T09:37:02.698Z,22.16
2022-09-09T09:42:25.987Z,21.31
2022-09-09T09:44:55.430Z,21.48
2022-09-09T09:47:24.336Z,21.78
2022-09-09T09:50:20.321Z,22.08
2022-09-09T09:52:56.656Z,22.34
2022-09-09T09:55:25.015Z,22.13
2022-09-09T09:57:52.741Z,22.67
2022-09-09T10:00:22.581Z,22.69
2022-09-09T10:02:57.334Z,21.81
2022-09-09T10:05:36.018Z,21.89
2022-09-09T10:08:13.188Z,22.71
2022-09-09T10:10:48.250Z,22.73
2022-09-09T10:13:42.639Z,22.97
2022-09-09T10:16:38.256Z,22.66
2022-09-09T10:19:21.740Z,22.26
2022-09-09T10:22:18.820Z,21.49
2022-09-09T10:25:03.267Z,21.46
2022-09-09T10:28:08.118Z,21.62
2022-09-09T10:30:51.207Z,21.15
2022-09-09T10:33:33.880Z,20.72
2022-09-09T10:36:09.400Z,20.69
2022-09-09T10:38:46.220Z,20.23
2022-09-09T10:41:31.546Z,19.80
2022-09-09T10:44:15.304Z,19.27
2022-09-09T10:47:01.920Z,19.06
2022-09-09T10:50:10.397Z,18.96
2022-09-09T10:53:09.566Z,18.72
2022-09-09T10:55:51.700Z,18.85
2022-09-09T10:58:27.151Z,18.84
2022-09-09T11:00:58.905Z,18.95
2022-09-09T11:03:34.259Z,18.84
2022-09-09T11:06:06.852Z,19.01
2022-09-09T11:08:40.246Z,19.17
2022-09-09T11:11:27.950Z,19.36
2022-09-09T11:14:09.450Z,19.81
2022-09-09T11:16:49.347Z,19.84
2022-09-09T11:19:20.196Z,19.70
2022-09-09T11:21:49.032Z,19.72
2022-09-09T11:24:44.801Z,19.90
2022-09-09T11:27:21.667Z,19.71
2022-09-09T11:30:07.837Z,19.69
2022-09-09T11:33:33.331Z,19.36
2022-09-09T11:36:08.257Z,19.21
2022-09-09T11:38:46.702Z,19.21
2022-09-09T11:41:21.011Z,19.33
2022-09-09T11:43:53.124Z,19.61
2022-09-09T11:46:23.044Z,19.65
2022-09-09T11:49:04.573Z,19.82
2022-09-09T11:51:33.988Z,20.49
2022-09-09T11:54:33.004Z,21.12
2022-09-09T11:56:59.700Z,20.81
2022-09-09T11:59:34.055Z,20.14
2022-09-09T12:02:03.129Z,20.11
2022-09-09T12:04:37.625Z,20.00
2022-09-09T12:07:40.138Z,20.15
2022-09-09T12:10:09.778Z,19.95
2022-09-09T12:12:43.839Z,19.73
2022-09-09T12:15:10.582Z,19.71
2022-09-09T12:17:47.656Z,19.74
2022-09-09T12:20:16.280Z,19.93
2022-09-09T12:22:53.186Z,19.98
2022-09-09T12:25:39.727Z,20.21
2022-09-09T12:28:16.151Z,20.85
2022-09-09T12:30:54.773Z,21.02
2022-09-09T12:33:22.729Z,21.28
2022-09-09T12:35:55.890Z,21.56
2022-09-09T12:38:32.511Z,21.41
2022-09-09T12:40:59.956Z,21.73
2022-09-09T12:43:27.943Z,21.67
2022-09-09T12:46:07.562Z,21.28
2022-09-09T12:48:41.228Z,21.15
2022-09-09T12:51:22.288Z,20.79
2022-09-09T12:53:48.892Z,20.68
2022-09-09T12:56:47.516Z,20.64
2022-09-09T12:59:25.598Z,20.97
2022-09-09T13:02:00.338Z,21.12
2022-09-09T13:04:27.091Z,20.56
2022-09-09T13:06:53.509Z,20.24
2022-09-09T13:09:20.447Z,20.13
2022-09-09T13:11:51.428Z,20.08
2022-09-09T13:14:29.932Z,20.02
2022-09-09T13:17:01.337Z,20.09
2022-09-09T13:19:37.307Z,20.20
2022-09-09T13:22:33.799Z,20.62
2022-09-09T13:25:22.718Z,20.78
2022-09-09T13:28:04.819Z,20.84
2022-09-09T13:30:37.080Z,20.45
2022-09-09T13:33:13.971Z,20.16
2022-09-09T13:36:06.586Z,19.88
2022-09-09T13:39:00.239Z,18.66
2022-09-09T13:41:32.020Z,17.91
2022-09-09T13:43:58.783Z,17.38
2022-09-09T13:46:45.644Z,17.10
2022-09-09T13:49:14.582Z,16.94
2022-09-09T13:51:46.360Z,17.02
2022-09-09T13:54:14.600Z,16.94
2022-09-09T13:56:42.503Z,16.88
2022-09-09T13:59:17.564Z,17.00
2022-09-09T14:01:43.964Z,17.11
2022-09-09T14:04:11.508Z,16.96
2022-09-09T14:06:40.120Z,16.79
2022-09-09T14:09:07.935Z,17.11
2022-09-09T14:11:34.451Z,17.23
2022-09-09T14:14:01.814Z,17.40
2022-09-09T14:16:28.766Z,17.59
2022-09-09T14:18:57.517Z,17.73
2022-09-09T14:21:24.821Z,17.92
2022-09-09T14:23:51.498Z,17.61
2022-09-09T14:26:19.764Z,18.29
2022-09-09T14:28:55.772Z,18.48
2022-09-09T14:31:23.782Z,19.48
2022-09-09T14:33:51.673Z,19.93
2022-09-09T14:36:19.476Z,20.03
2022-09-09T14:38:45.900Z,20.45
2022-09-09T14:41:17.695Z,20.49
2022-09-09T14:43:45.079Z,20.16
2022-09-09T14:46:14.813Z,20.18
2022-09-09T14:48:41.660Z,20.78
2022-09-09T14:51:10.763Z,20.85
2022-09-09T14:53:37.543Z,20.71
2022-09-09T14:56:13.553Z,20.23
2022-09-09T14:58:40.180Z,20.00
2022-09-09T15:01:10.833Z,19.73
2022-09-09T15:03:38.743Z,19.60
2022-09-09T15:06:15.285Z,19.39
2022-09-09T15:08:44.143Z,19.39
2022-09-09T15:11:12.487Z,19.41
2022-09-09T15:13:40.794Z,19.34
2022-09-09T15:16:19.132Z,19.55
2022-09-09T15:18:47.045Z,19.65
2022-09-09T15:21:19.999Z,19.60
2022-09-09T15:23:46.458Z,19.73
2022-09-09T15:26:16.112Z,19.72
2022-09-09T15:28:44.524Z,19.55
2022-09-09T15:31:12.507Z,19.40
2022-09-09T15:33:39.061Z,19.33
2022-09-09T15:36:17.806Z,19.35
2022-09-09T15:38:44.868Z,19.34
2022-09-09T15:41:12.440Z,19.26
2022-09-09T15:43:40.120Z,19.13
2022-09-09T15:46:25.185Z,19.12
2022-09-09T15:48:53.845Z,18.99
2022-09-09T15:51:41.017Z,18.92
2022-09-09T15:54:08.118Z,18.93
2022-09-09T15:56:35.696Z,18.93
2022-09-09T15:59:05.979Z,18.80
2022-09-09T16:01:33.323Z,18.76
2022-09-09T16:04:00.927Z,18.77
2022-09-09T16:06:29.284Z,18.73
2022-09-09T16:08:57.707Z,18.73
2022-09-09T16:11:27.257Z,18.76
2022-09-09T16:13:55.437Z,18.72
2022-09-09T16:16:25.197Z,18.58
2022-09-09T16:18:54.175Z,18.59
2022-09-09T16:21:27.263Z,18.49
2022-09-09T16:23:56.908Z,18.40
2022-09-09T16:26:23.964Z,18.10
2022-09-09T16:28:50.682Z,17.78
2022-09-09T16:31:19.777Z,17.41
2022-09-09T16:33:47.203Z,17.04
2022-09-09T16:36:17.024Z,16.79
2022-09-09T16:38:46.327Z,16.49
2022-09-09T16:41:15.036Z,16.18
2022-09-09T16:43:42.345Z,16.03
2022-09-09T16:46:17.402Z,16.14
2022-09-09T16:48:45.216Z,16.18
2022-09-09T16:51:29.769Z,16.30
2022-09-09T16:53:58.554Z,16.32
2022-09-09T16:56:27.459Z,16.17
2022-09-09T16:59:03.434Z,16.14
2022-09-09T17:01:33.733Z,16.08
2022-09-09T17:04:03.310Z,15.96
2022-09-09T17:06:31.285Z,15.66
2022-09-09T17:09:02.473Z,15.84
2022-09-09T17:11:29.915Z,15.99
2022-09-09T17:13:58.912Z,15.90
2022-09-09T17:16:28.300Z,15.89
2022-09-09T17:18:55.440Z,15.88
2022-09-09T17:21:26.242Z,15.81
2022-09-09T17:23:54.807Z,15.65
2022-09-09T17:26:27.468Z,15.63
2022-09-09T17:28:59.478Z,15.69
2022-09-09T17:31:28.389Z,15.73
2022-09-09T17:33:56.006Z,15.74
2022-09-09T17:36:25.956Z,15.71
2022-09-09T17:38:52.875Z,15.66
2022-09-09T17:41:28.734Z,15.65
2022-09-09T17:43:55.650Z,15.60
2022-09-09T17:46:35.238Z,15.61
2022-09-09T17:49:10.812Z,15.60
2022-09-09T17:51:37.473Z,15.43
2022-09-09T17:54:10.944Z,15.35
2022-09-09T17:56:38.823Z,15.31
2022-09-09T17:59:07.700Z,15.37
2022-09-09T18:01:39.397Z,15.31
2022-09-09T18:04:07.459Z,15.23
2022-09-09T18:06:39.331Z,15.22
2022-09-09T18:09:09.143Z,15.21
2022-09-09T18:11:39.775Z,15.18
2022-09-09T18:14:06.261Z,15.12
2022-09-09T18:16:35.907Z,15.03
2022-09-09T18:19:06.253Z,15.01
2022-09-09T18:21:34.056Z,15.02
2022-09-09T18:24:02.499Z,15.00
2022-09-09T18:26:29.887Z,15.11
2022-09-09T18:28:59.327Z,15.05
2022-09-09T18:31:28.019Z,14.98
2022-09-09T18:33:58.579Z,15.08
2022-09-09T18:36:28.202Z,15.06
2022-09-09T18:38:57.496Z,14.98
2022-09-09T18:41:27.179Z,14.95
2022-09-09T18:43:55.930Z,14.85
2022-09-09T18:46:23.819Z,14.90
2022-09-09T18:48:50.693Z,14.87
2022-09-09T18:51:20.049Z,14.80
2022-09-09T18:53:52.719Z,14.80
2022-09-09T18:56:19.574Z,14.77
2022-09-09T18:58:48.485Z,14.79
2022-09-09T19:01:15.613Z,14.80
2022-09-09T19:03:42.424Z,14.75
2022-09-09T19:06:12.404Z,14.79
2022-09-09T19:08:43.528Z,14.79
2022-09-09T19:11:13.296Z,14.78
2022-09-09T19:13:40.326Z,14.85
2022-09-09T19:16:09.543Z,15.13
2022-09-09T19:18:39.862Z,15.01
2022-09-09T19:21:24.131Z,15.13
2022-09-09T19:23:59.962Z,15.06
2022-09-09T19:26:33.231Z,15.09
2022-09-09T19:28:59.792Z,15.14
2022-09-09T19:31:27.893Z,15.03
2022-09-09T19:33:58.445Z,15.12
2022-09-09T19:36:27.759Z,15.29
2022-09-09T19:38:55.184Z,15.26
2022-09-09T19:41:24.823Z,15.31
2022-09-09T19:43:53.125Z,15.22
2022-09-09T19:46:19.638Z,15.35
2022-09-09T19:48:46.649Z,15.43
2022-09-09T19:51:21.545Z,15.54
2022-09-09T19:54:00.738Z,15.81
2022-09-09T19:56:27.864Z,15.82
2022-09-09T19:58:54.721Z,15.54
2022-09-09T20:01:23.948Z,15.81
2022-09-09T20:03:52.194Z,16.40
2022-09-09T20:06:26.602Z,16.59
2022-09-09T20:08:53.730Z,16.77
2022-09-09T20:11:20.361Z,16.76
2022-09-09T20:13:48.448Z,16.94
2022-09-09T20:16:18.198Z,16.90
2022-09-09T20:18:48.048Z,16.90
2022-09-09T20:21:17.777Z,16.99
2022-09-09T20:23:44.293Z,17.10
2022-09-09T20:26:12.852Z,17.11
2022-09-09T20:28:42.334Z,17.15
2022-09-09T20:31:19.553Z,17.11
2022-09-09T20:33:47.389Z,17.05
2022-09-09T20:36:17.519Z,17.11
2022-09-09T20:38:50.297Z,17.05
2022-09-09T20:41:21.745Z,17.10
2022-09-09T20:43:49.777Z,17.04
2022-09-09T20:46:18.094Z,17.04
2022-09-09T20:48:46.219Z,17.00
2022-09-09T20:51:14.872Z,17.01
2022-09-09T20:53:41.656Z,16.98
2022-09-09T20:56:08.923Z,17.02
2022-09-09T20:58:36.831Z,16.95
2022-09-09T21:01:05.939Z,16.98
2022-09-09T21:03:37.165Z,16.92
2022-09-09T21:06:06.115Z,16.89
2022-09-09T21:08:33.820Z,16.97
2022-09-09T21:11:04.695Z,17.00
2022-09-09T21:13:33.171Z,16.90
2022-09-09T21:16:00.205Z,16.93
2022-09-09T21:18:27.337Z,16.89
2022-09-09T21:20:54.238Z,16.90
2022-09-09T21:23:21.347Z,16.92
2022-09-09T21:25:48.472Z,16.89
2022-09-09T21:28:16.220Z,16.82
2022-09-09T21:30:48.199Z,16.86
2022-09-09T21:33:15.144Z,16.83
2022-09-09T21:35:42.117Z,16.79
2022-09-09T21:38:12.696Z,16.75
2022-09-09T21:40:39.804Z,16.79
2022-09-09T21:43:11.917Z,16.87
2022-09-09T21:45:39.924Z,16.75
2022-09-09T21:48:11.831Z,16.74
2022-09-09T21:50:39.550Z,16.77
2022-09-09T21:53:06.228Z,16.78
2022-09-09T21:55:34.523Z,16.74
2022-09-09T21:58:01.186Z,16.69
2022-09-09T22:00:28.263Z,16.73
2022-09-09T22:02:54.639Z,16.66
2022-09-09T22:05:21.047Z,16.59
2022-09-09T22:07:47.371Z,16.73
2022-09-09T22:10:13.776Z,16.76
2022-09-09T22:12:40.265Z,16.67
2022-09-09T22:15:07.691Z,16.73
2022-09-09T22:17:34.873Z,16.76
2022-09-09T22:20:01.619Z,16.76
2022-09-09T22:22:28.055Z,16.83
2022-09-09T22:24:54.452Z,16.74
2022-09-09T22:27:20.832Z,16.75
2022-09-09T22:29:47.223Z,16.76
2022-09-09T22:32:13.584Z,16.76
2022-09-09T22:34:40.125Z,16.83
2022-09-09T22:37:07.132Z,16.75
2022-09-09T22:39:33.933Z,16.84
2022-09-09T22:42:00.824Z,16.77
2022-09-09T22:44:27.496Z,16.76
2022-09-09T22:46:55.352Z,16.74
2022-09-09T22:49:23.778Z,16.79
2022-09-09T22:51:50.342Z,16.79
2022-09-09T22:54:21.589Z,16.73
2022-09-09T22:56:49.199Z,16.77
2022-09-09T22:59:15.890Z,16.75
2022-09-09T23:01:43.019Z,16.74
2022-09-09T23:04:09.628Z,16.74
2022-09-09T23:06:38.416Z,16.81
2022-09-09T23:09:05.315Z,16.78
2022-09-09T23:11:36.890Z,16.77
2022-09-09T23:14:06.720Z,16.78
2022-09-09T23:16:42.883Z,16.87
2022-09-09T23:19:15.050Z,16.73
2022-09-09T23:21:44.006Z,16.76
2022-09-09T23:24:13.102Z,16.77
2022-09-09T23:26:39.867Z,16.70
2022-09-09T23:29:06.410Z,16.75
2022-09-09T23:31:37.661Z,16.78
2022-09-09T23:34:05.311Z,16.73
2022-09-09T23:36:32.580Z,16.76
2022-09-09T23:39:02.725Z,16.78
2022-09-09T23:41:30.547Z,16.82
2022-09-09T23:43:57.592Z,16.71
2022-09-09T23:46:29.354Z,16.73
2022-09-09T23:48:57.727Z,16.74
2022-09-09T23:51:27.267Z,16.73
2022-09-09T23:53:56.754Z,16.72
2022-09-09T23:56:27.103Z,16.77
2022-09-09T23:58:54.036Z,16.74
